Time;durP1;ratioP1;P1;durP2;ratioP2;P2;SDS_P1;SDS_P2;PMS_P1;PMS_P2;Temp;Humidity;BMP_temperature;BMP_pressure;BME280_temperature;BME280_humidity;BME280_pressure;Samples;Min_cycle;Max_cycle;Signal;HPM_P1;HPM_P2
2022/09/24 00:01:34;;;;;;;8.33;4.22;;;;;;;10.15;93.12;99943.20;1630589;88;21496;-71
2022/09/24 00:04:10;;;;;;;6.62;3.98;;;;;;;10.13;93.07;99937.09;1646145;87;21024;-71
2022/09/24 00:06:43;;;;;;;8.08;4.50;;;;;;;10.11;93.01;99936.45;1630422;86;21119;-69
2022/09/24 00:09:16;;;;;;;5.40;3.67;;;;;;;10.11;93.08;99939.19;1646327;86;21077;-70
2022/09/24 00:11:45;;;;;;;4.62;3.62;;;;;;;10.12;93.06;99939.51;1619968;88;21103;-70
2022/09/24 00:14:14;;;;;;;4.80;3.98;;;;;;;10.12;92.93;99932.67;1647925;87;21058;-69
2022/09/24 00:16:44;;;;;;;6.03;4.20;;;;;;;10.11;92.89;99934.56;1646763;86;21110;-70
2022/09/24 00:19:14;;;;;;;8.25;4.33;;;;;;;10.08;92.86;99938.23;1658159;86;21111;-70
2022/09/24 00:21:44;;;;;;;5.53;3.70;;;;;;;10.08;92.96;99939.61;1674994;86;21083;-70
2022/09/24 00:26:48;;;;;;;6.72;4.10;;;;;;;10.09;92.86;99936.66;1646226;87;21047;-71
2022/09/24 00:26:49;;;;;;;4.87;3.67;;;;;;;10.08;92.72;99936.87;1671199;86;21047;-69
2022/09/24 00:29:22;;;;;;;7.37;4.28;;;;;;;10.10;92.61;99936.14;1683906;84;21093;-68
2022/09/24 00:31:52;;;;;;;4.97;3.98;;;;;;;10.07;92.42;99930.55;1650810;87;21088;-68
2022/09/24 00:34:22;;;;;;;5.50;3.83;;;;;;;10.06;92.38;99934.34;1639184;87;21127;-70
2022/09/24 00:36:52;;;;;;;6.05;3.85;;;;;;;10.04;92.35;99924.12;1651032;87;21064;-70
2022/09/24 00:39:23;;;;;;;6.50;3.90;;;;;;;10.03;92.26;99925.17;1639191;87;21059;-68
2022/09/24 00:41:53;;;;;;;4.72;3.80;;;;;;;10.04;92.07;99926.02;1653441;85;21070;-70
2022/09/24 00:44:49;;;;;;;5.33;4.10;;;;;;;10.02;92.06;99921.27;1684249;85;21029;-70
2022/09/24 00:47:38;;;;;;;5.47;3.95;;;;;;;9.99;92.13;99923.05;1652442;86;21071;-70
2022/09/24 00:50:21;;;;;;;5.33;3.72;;;;;;;9.99;92.28;99921.68;1662332;86;21087;-70
2022/09/24 00:53:11;;;;;;;4.70;3.65;;;;;;;9.99;92.34;99918.42;1684073;85;21035;-69
2022/09/24 00:55:41;;;;;;;5.25;3.80;;;;;;;10.01;92.25;99918.21;1683951;85;21453;-69
2022/09/24 00:58:10;;;;;;;5.15;3.62;;;;;;;9.98;92.04;99919.99;1687063;85;21048;-71
2022/09/24 01:00:39;;;;;;;4.80;3.75;;;;;;;9.94;92.01;99911.35;1683915;85;21049;-71
2022/09/24 01:03:13;;;;;;;4.97;3.75;;;;;;;9.92;92.05;99916.71;1662707;85;21072;-70
2022/09/24 01:05:42;;;;;;;4.83;3.27;;;;;;;9.92;92.15;99918.08;1654940;86;21522;-69
2022/09/24 01:08:14;;;;;;;3.98;3.47;;;;;;;9.93;92.07;99916.51;1655150;87;21460;-69
2022/09/24 01:11:18;;;;;;;8.53;3.85;;;;;;;9.91;92.00;99915.86;1655244;86;21070;-69
2022/09/24 01:14:01;;;;;;;5.33;3.30;;;;;;;9.93;92.12;99917.87;1654941;86;21487;-69
2022/09/24 01:16:48;;;;;;;5.05;3.33;;;;;;;9.93;92.15;99916.51;1655074;87;21134;-70
2022/09/24 01:19:44;;;;;;;4.62;3.62;;;;;;;9.95;92.15;99909.45;1655056;87;21024;-69
2022/09/24 01:22:53;;;;;;;5.40;3.10;;;;;;;9.96;91.94;99905.67;1655464;85;21031;-69
2022/09/24 01:25:45;;;;;;;5.70;3.77;;;;;;;9.94;91.86;99908.61;1654872;85;21039;-70
2022/09/24 01:28:54;;;;;;;7.35;3.33;;;;;;;9.95;91.98;99912.19;1651750;87;21529;-69
2022/09/24 01:31:34;;;;;;;4.60;3.60;;;;;;;9.92;91.93;99909.87;1647682;87;21032;-68
2022/09/24 01:34:06;;;;;;;3.47;3.05;;;;;;;9.90;91.84;99910.60;1647620;87;21076;-69
2022/09/24 01:36:35;;;;;;;5.65;3.12;;;;;;;9.89;91.80;99913.86;1680565;85;21008;-70
2022/09/24 01:39:04;;;;;;;5.35;3.55;;;;;;;9.87;91.82;99912.38;1680661;85;21502;-69
2022/09/24 01:41:36;;;;;;;5.03;3.50;;;;;;;9.84;91.87;99921.31;1696758;83;21083;-70
2022/09/24 01:44:06;;;;;;;4.17;3.33;;;;;;;9.82;91.77;99907.00;1710552;84;21020;-70
2022/09/24 01:46:38;;;;;;;4.72;3.33;;;;;;;9.81;91.84;99908.56;1710321;84;21044;-69
2022/09/24 01:49:07;;;;;;;4.17;3.27;;;;;;;9.80;91.93;99909.09;1710432;84;21048;-70
2022/09/24 01:51:43;;;;;;;5.70;3.52;;;;;;;9.79;92.05;99918.34;1710591;84;21007;-70
2022/09/24 01:54:22;;;;;;;5.05;3.60;;;;;;;9.81;92.15;99910.78;1710685;83;21503;-71
2022/09/24 01:57:13;;;;;;;5.62;3.67;;;;;;;9.84;92.05;99917.21;1710416;84;21083;-71
2022/09/24 01:59:47;;;;;;;3.80;2.98;;;;;;;9.81;91.91;99906.67;1710791;82;21028;-70
2022/09/24 02:02:28;;;;;;;6.22;3.80;;;;;;;9.79;91.95;99912.88;1739987;82;21043;-70
2022/09/24 02:05:11;;;;;;;4.45;3.70;;;;;;;9.80;91.93;99909.62;1704742;84;21041;-69
2022/09/24 02:07:52;;;;;;;4.40;3.65;;;;;;;9.81;91.97;99908.05;1733506;82;21075;-69
2022/09/24 02:10:20;;;;;;;4.10;3.58;;;;;;;9.81;92.01;99913.52;1735402;82;21479;-70
2022/09/24 02:12:54;;;;;;;4.60;3.62;;;;;;;9.83;92.04;99914.16;1739824;82;21504;-69
2022/09/24 02:15:28;;;;;;;5.65;3.60;;;;;;;9.87;92.00;99917.84;1704954;84;21068;-69
2022/09/24 02:18:06;;;;;;;8.08;4.10;;;;;;;9.84;91.86;99919.95;1739811;82;21039;-69
2022/09/24 02:20:35;;;;;;;6.47;4.72;;;;;;;9.84;91.89;99921.31;1702039;82;21072;-69
2022/09/24 02:23:07;;;;;;;6.20;4.30;;;;;;;9.82;91.83;99918.47;1680464;85;21103;-70
2022/09/24 02:25:54;;;;;;;8.25;4.42;;;;;;;9.83;91.86;99918.26;1647575;87;21062;-71
2022/09/24 02:28:23;;;;;;;5.90;4.10;;;;;;;9.82;91.69;99917.94;1647556;86;21051;-68
2022/09/24 02:31:09;;;;;;;6.40;4.60;;;;;;;9.80;91.72;99930.98;1655379;85;21079;-70
2022/09/24 02:36:29;;;;;;;4.67;3.80;;;;;;;9.73;91.94;99928.71;1633284;87;21043;-69
2022/09/24 02:38:58;;;;;;;7.40;3.83;;;;;;;9.76;92.00;99931.07;1651166;85;21546;-69
2022/09/24 02:41:27;;;;;;;6.10;4.05;;;;;;;9.72;91.96;99927.02;1710383;83;21498;-70
2022/09/24 02:43:56;;;;;;;5.70;4.33;;;;;;;9.73;92.02;99936.92;1710790;83;21551;-69
2022/09/24 02:46:25;;;;;;;5.83;3.87;;;;;;;9.76;92.14;99932.44;1710491;83;21558;-69
2022/09/24 02:48:54;;;;;;;4.78;3.45;;;;;;;9.77;92.20;99936.86;1710436;84;21513;-69
2022/09/24 02:51:23;;;;;;;4.03;3.50;;;;;;;9.79;92.13;99937.50;1710458;84;21087;-69
2022/09/24 02:53:52;;;;;;;5.72;4.08;;;;;;;9.80;92.03;99938.34;1710378;84;21894;-69
2022/09/24 02:56:20;;;;;;;4.90;3.90;;;;;;;9.78;92.03;99938.55;1710543;83;21067;-69
2022/09/24 02:58:50;;;;;;;5.22;4.37;;;;;;;9.81;92.11;99931.30;1720057;82;21523;-68
2022/09/24 03:01:19;;;;;;;6.60;3.80;;;;;;;9.81;92.01;99938.14;1740218;82;21491;-69
2022/09/24 03:03:49;;;;;;;5.58;3.77;;;;;;;9.79;91.88;99940.77;1704760;84;21487;-69
2022/09/24 03:06:18;;;;;;;4.97;4.10;;;;;;;9.81;91.88;99943.61;1739802;82;21103;-69
2022/09/24 03:08:48;;;;;;;5.47;3.72;;;;;;;9.82;91.84;99939.83;1739923;82;21015;-68
2022/09/24 03:11:17;;;;;;;5.33;4.22;;;;;;;9.82;91.78;99943.94;1739827;82;20984;-70
2022/09/24 03:13:47;;;;;;;5.12;4.10;;;;;;;9.82;91.72;99942.56;1739004;82;21059;-69
2022/09/24 03:16:16;;;;;;;5.00;3.98;;;;;;;9.80;91.61;99935.61;1739938;82;21075;-68
2022/09/24 03:18:47;;;;;;;4.42;3.60;;;;;;;9.80;91.61;99946.55;1739847;82;21103;-67
2022/09/24 03:21:18;;;;;;;5.35;3.95;;;;;;;9.82;91.64;99940.35;1739912;82;21028;-69
2022/09/24 03:23:47;;;;;;;4.28;3.72;;;;;;;9.79;91.62;99942.13;1704765;84;21052;-69
2022/09/24 03:26:16;;;;;;;5.45;3.80;;;;;;;9.77;91.59;99943.70;1739982;82;21051;-69
2022/09/24 03:28:45;;;;;;;5.22;4.12;;;;;;;9.77;91.63;99946.96;1736490;82;21044;-68
2022/09/24 03:31:14;;;;;;;5.17;3.75;;;;;;;9.76;91.62;99940.64;1730411;83;21063;-69
2022/09/24 03:33:47;;;;;;;4.40;3.72;;;;;;;9.74;91.68;99935.87;1728750;83;21080;-70
2022/09/24 03:36:19;;;;;;;6.80;4.00;;;;;;;9.76;91.66;99947.48;1730571;83;21020;-68
2022/09/24 03:38:50;;;;;;;5.20;4.00;;;;;;;9.79;91.70;99941.61;1730601;83;21047;-69
2022/09/24 03:41:21;;;;;;;6.40;3.90;;;;;;;9.76;91.43;99938.44;1716053;83;21060;-69
2022/09/24 03:43:49;;;;;;;4.85;3.77;;;;;;;9.71;91.40;99947.22;1672934;86;21052;-70
2022/09/24 03:46:19;;;;;;;4.60;3.45;;;;;;;9.72;91.49;99946.70;1671901;86;21051;-68
2022/09/24 03:48:49;;;;;;;5.33;3.30;;;;;;;9.75;91.56;99950.39;1651399;87;21020;-68
2022/09/24 03:51:18;;;;;;;4.75;3.55;;;;;;;9.77;91.45;99949.17;1651430;87;21410;-68
2022/09/24 03:53:48;;;;;;;7.22;3.75;;;;;;;9.76;91.34;99943.38;1651280;86;21506;-68
2022/09/24 03:56:16;;;;;;;5.53;3.72;;;;;;;9.73;91.36;99944.28;1667749;86;21480;-69
2022/09/24 03:58:47;;;;;;;5.17;3.58;;;;;;;9.72;91.39;99940.70;1651352;86;21068;-67
2022/09/24 04:01:20;;;;;;;4.40;3.27;;;;;;;9.73;91.35;99947.86;1667886;85;21005;-70
2022/09/24 04:03:50;;;;;;;4.65;3.10;;;;;;;9.73;91.33;99938.28;1651204;86;21039;-69
2022/09/24 04:06:18;;;;;;;4.58;3.58;;;;;;;9.71;91.20;99948.59;1665033;84;21454;-68
2022/09/24 04:08:49;;;;;;;5.08;3.60;;;;;;;9.72;91.26;99943.44;1655503;86;21012;-68
2022/09/24 04:11:19;;;;;;;4.60;3.45;;;;;;;9.74;91.34;99941.86;1656595;87;21040;-69
2022/09/24 04:13:49;;;;;;;5.75;3.42;;;;;;;9.72;91.23;99943.44;1656261;87;21091;-68
2022/09/24 04:16:19;;;;;;;5.33;3.72;;;;;;;9.71;91.19;99935.44;1656663;86;21105;-69
2022/09/24 04:18:48;;;;;;;5.65;3.55;;;;;;;9.69;91.16;99941.11;1656158;87;21105;-71
2022/09/24 04:21:18;;;;;;;5.70;3.25;;;;;;;9.70;91.13;99942.80;1656367;86;21071;-69
2022/09/24 04:23:47;;;;;;;4.25;3.70;;;;;;;9.71;91.08;99948.59;1656423;87;21004;-69
2022/09/24 04:26:16;;;;;;;4.97;3.80;;;;;;;9.70;91.10;99948.79;1656504;87;21040;-70
2022/09/24 04:28:45;;;;;;;5.35;3.65;;;;;;;9.69;91.02;99944.37;1660560;85;21172;-69
2022/09/24 04:31:14;;;;;;;5.28;3.35;;;;;;;9.69;91.01;99949.31;1676446;85;21053;-71
2022/09/24 04:33:45;;;;;;;3.72;3.02;;;;;;;9.68;90.98;99949.00;1728052;82;21080;-69
2022/09/24 04:36:14;;;;;;;9.98;3.83;;;;;;;9.73;91.04;99950.59;1739986;82;21087;-69
2022/09/24 04:38:45;;;;;;;5.30;3.42;;;;;;;9.73;90.88;99955.22;1739644;82;21095;-69
2022/09/24 04:41:15;;;;;;;4.70;3.80;;;;;;;9.75;90.87;99951.77;1739862;82;21055;-68
2022/09/24 04:43:47;;;;;;;4.45;3.62;;;;;;;9.75;90.85;99953.13;1739963;82;21075;-70
2022/09/24 04:46:17;;;;;;;6.20;3.77;;;;;;;9.76;90.79;99954.33;1738918;82;21083;-69
2022/09/24 04:48:46;;;;;;;4.95;3.27;;;;;;;9.81;90.75;99952.34;1739968;82;21487;-69
2022/09/24 04:51:18;;;;;;;6.28;3.60;;;;;;;9.82;90.69;99958.98;1740133;82;21027;-69
2022/09/24 04:53:49;;;;;;;4.12;3.40;;;;;;;9.82;90.61;99958.98;1739914;82;21454;-69
2022/09/24 04:56:19;;;;;;;6.28;3.67;;;;;;;9.82;90.63;99956.25;1704766;84;21064;-69
2022/09/24 04:58:50;;;;;;;5.70;3.58;;;;;;;9.84;90.52;99958.25;1739865;82;21035;-69
2022/09/24 05:01:20;;;;;;;7.17;3.80;;;;;;;9.88;90.42;99966.90;1739818;82;21104;-69
2022/09/24 05:03:50;;;;;;;5.12;3.50;;;;;;;9.89;90.33;99962.27;1704669;84;21029;-69
2022/09/24 05:06:19;;;;;;;5.35;3.70;;;;;;;9.88;90.22;99959.22;1734974;82;21016;-69
2022/09/24 05:08:49;;;;;;;4.70;3.80;;;;;;;9.84;90.24;99952.78;1733347;82;21099;-70
2022/09/24 05:11:19;;;;;;;5.78;4.12;;;;;;;9.83;90.31;99949.73;1662888;86;21477;-70
2022/09/24 05:13:48;;;;;;;4.70;3.27;;;;;;;9.87;90.33;99958.90;1646104;87;21508;-69
2022/09/24 05:16:17;;;;;;;6.67;3.83;;;;;;;9.88;90.21;99957.33;1662749;85;21500;-68
2022/09/24 05:18:51;;;;;;;7.47;3.50;;;;;;;9.88;90.06;99960.58;1698926;84;21076;-69
2022/09/24 05:21:22;;;;;;;3.95;3.02;;;;;;;9.85;90.14;99961.31;1668584;84;21108;-69
2022/09/24 05:23:51;;;;;;;5.87;3.98;;;;;;;9.87;90.27;99962.48;1739808;82;21032;-70
2022/09/24 05:29:09;;;;;;;2.98;2.60;;;;;;;9.88;90.03;99962.80;1739640;82;21111;-68
2022/09/24 05:31:37;;;;;;;3.45;2.70;;;;;;;9.88;90.11;99953.74;1740062;82;21476;-69
2022/09/24 05:34:07;;;;;;;8.70;3.47;;;;;;;9.90;89.99;99963.96;1739911;82;21043;-67
2022/09/24 05:36:37;;;;;;;18.65;12.15;;;;;;;9.90;89.92;99966.70;1684805;84;21095;-68
2022/09/24 05:39:06;;;;;;;4.72;2.67;;;;;;;9.93;89.99;99967.66;1723575;82;21079;-70
2022/09/24 05:41:35;;;;;;;4.62;3.30;;;;;;;9.95;89.85;99963.66;1667382;86;21048;-68
2022/09/24 05:44:05;;;;;;;7.05;3.50;;;;;;;9.97;89.82;99960.73;1667499;86;21068;-69
2022/09/24 05:46:34;;;;;;;9.48;3.87;;;;;;;9.99;89.72;99964.10;1703775;84;21099;-68
2022/09/24 05:49:03;;;;;;;4.20;2.92;;;;;;;10.00;89.68;99966.63;1667276;85;21091;-69
2022/09/24 05:51:32;;;;;;;4.17;3.02;;;;;;;10.02;89.57;99962.33;1703789;84;21071;-68
2022/09/24 05:54:02;;;;;;;7.78;2.52;;;;;;;10.06;89.51;99960.86;1667612;86;21032;-69
2022/09/24 05:56:31;;;;;;;12.37;10.10;;;;;;;10.08;89.37;99956.88;1703606;83;21044;-70
2022/09/24 05:59:02;;;;;;;5.58;2.80;;;;;;;10.12;89.29;99957.30;1672717;85;21099;-68
2022/09/24 06:01:31;;;;;;;5.10;3.33;;;;;;;10.13;89.06;99954.36;1710721;84;21413;-70
2022/09/24 06:04:01;;;;;;;5.60;2.80;;;;;;;10.15;88.96;99958.27;1710661;83;21107;-70
2022/09/24 06:06:31;;;;;;;4.08;2.90;;;;;;;10.17;88.87;99959.74;1709938;84;21510;-68
2022/09/24 06:09:03;;;;;;;4.55;2.70;;;;;;;10.21;88.62;99957.99;1710619;83;21480;-70
2022/09/24 06:11:34;;;;;;;5.95;3.30;;;;;;;10.26;88.57;99965.91;1710686;83;21040;-70
2022/09/24 06:14:05;;;;;;;6.50;3.00;;;;;;;10.30;88.29;99963.60;1709901;82;21071;-69
2022/09/24 06:16:34;;;;;;;4.97;2.60;;;;;;;10.31;87.99;99963.39;1718640;82;21511;-68
2022/09/24 06:19:05;;;;;;;5.65;2.95;;;;;;;10.33;87.85;99965.92;1699955;84;21064;-70
2022/09/24 06:21:35;;;;;;;3.98;2.77;;;;;;;10.30;87.19;99968.55;1737249;82;21091;-69
2022/09/24 06:24:04;;;;;;;6.10;3.00;;;;;;;10.28;87.28;99972.02;1686430;84;21060;-70
2022/09/24 06:26:33;;;;;;;5.75;2.87;;;;;;;10.28;87.18;99974.77;1699007;84;21071;-69
2022/09/24 06:29:02;;;;;;;4.50;3.10;;;;;;;10.28;87.10;99973.39;1662724;85;21089;-69
2022/09/24 06:31:34;;;;;;;5.65;3.20;;;;;;;10.29;87.20;99983.30;1698834;84;21072;-70
2022/09/24 06:34:04;;;;;;;3.83;2.77;;;;;;;10.34;87.22;99978.05;1662731;86;21016;-70
2022/09/24 06:36:33;;;;;;;3.67;2.58;;;;;;;10.39;87.11;99980.16;1706173;82;21065;-70
2022/09/24 06:39:03;;;;;;;7.03;3.20;;;;;;;10.43;86.79;99982.84;1710157;83;21110;-70
2022/09/24 06:41:32;;;;;;;7.25;2.90;;;;;;;10.43;86.65;99985.05;1710367;84;21004;-70
2022/09/24 06:44:02;;;;;;;12.73;4.12;;;;;;;10.47;86.52;99986.84;1710485;83;21039;-69
2022/09/24 06:46:31;;;;;;;6.03;3.33;;;;;;;10.52;86.41;99985.70;1739389;82;21072;-70
2022/09/24 06:49:00;;;;;;;4.12;2.47;;;;;;;10.58;85.99;99992.24;1740072;82;21047;-70
2022/09/24 06:51:29;;;;;;;7.15;3.20;;;;;;;10.63;85.78;99993.30;1739895;82;21437;-68
2022/09/24 06:53:59;;;;;;;4.60;3.33;;;;;;;10.69;85.77;99993.84;1740180;82;21480;-70
2022/09/24 06:56:29;;;;;;;4.87;2.72;;;;;;;10.76;85.24;99989.74;1740090;82;21047;-70
2022/09/24 06:58:58;;;;;;;5.72;3.00;;;;;;;10.79;84.41;99996.17;1702199;84;21052;-70
2022/09/24 07:01:27;;;;;;;4.87;2.75;;;;;;;10.78;84.20;99996.70;1740007;82;21028;-68
2022/09/24 07:03:57;;;;;;;4.17;2.85;;;;;;;10.83;84.18;99994.70;1739889;82;21522;-68
2022/09/24 07:07:28;;;;;;;4.67;2.77;;;;;;;10.90;83.83;99998.30;1739528;82;21024;-69
2022/09/24 07:08:58;;;;;;;4.22;3.02;;;;;;;10.98;83.77;100002.20;1701718;84;21016;-71
2022/09/24 07:11:28;;;;;;;3.80;2.62;;;;;;;11.03;83.42;100007.89;1740072;82;21028;-71
2022/09/24 07:13:59;;;;;;;3.67;3.00;;;;;;;11.06;82.57;100003.39;1739846;82;21015;-68
2022/09/24 07:16:28;;;;;;;4.15;2.90;;;;;;;11.01;82.07;99997.66;1707859;82;21052;-74
2022/09/24 07:19:00;;;;;;;7.85;4.55;;;;;;;10.98;82.01;100011.80;1704692;84;21028;-72
2022/09/24 07:21:35;;;;;;;6.90;3.83;;;;;;;10.98;81.92;100010.95;1704834;84;21012;-74
2022/09/24 07:24:09;;;;;;;8.50;5.10;;;;;;;10.95;81.69;100010.84;1698790;82;21052;-72
2022/09/24 07:26:39;;;;;;;4.80;3.30;;;;;;;10.94;81.83;100019.28;1662501;86;21441;-71
2022/09/24 07:29:08;;;;;;;4.42;3.37;;;;;;;10.96;81.48;100016.64;1698550;84;21048;-72
2022/09/24 07:31:38;;;;;;;5.12;3.40;;;;;;;10.96;81.24;100019.91;1662664;86;21045;-70
2022/09/24 07:34:10;;;;;;;3.47;2.42;;;;;;;10.97;81.08;100023.81;1701539;82;21495;-71
2022/09/24 07:36:41;;;;;;;3.52;2.55;;;;;;;11.00;80.02;100024.77;1675281;85;21071;-73
2022/09/24 07:39:10;;;;;;;4.83;2.65;;;;;;;10.98;79.69;100021.39;1710132;83;21107;-73
2022/09/24 07:41:41;;;;;;;5.83;2.77;;;;;;;10.98;79.58;100021.91;1710271;83;21064;-73
2022/09/24 07:44:11;;;;;;;3.27;2.50;;;;;;;11.01;79.63;100025.08;1710147;83;21040;-72
2022/09/24 07:46:40;;;;;;;4.55;2.52;;;;;;;11.09;79.53;100022.16;1690278;84;21048;-73
2022/09/24 07:49:10;;;;;;;3.67;2.47;;;;;;;11.18;79.51;100017.31;1710531;84;21086;-71
2022/09/24 07:51:39;;;;;;;5.50;2.50;;;;;;;11.30;79.36;100023.00;1710044;83;21044;-72
2022/09/24 07:54:09;;;;;;;4.10;2.40;;;;;;;11.39;78.42;100016.24;1715317;82;21534;-73
2022/09/24 07:56:42;;;;;;;2.80;2.33;;;;;;;11.45;77.39;100026.37;1745012;82;21314;-73
2022/09/24 07:59:11;;;;;;;4.40;2.50;;;;;;;11.49;77.16;100022.14;1745358;82;21067;-71
2022/09/24 08:01:41;;;;;;;4.97;2.30;;;;;;;11.56;77.15;100027.63;1745454;82;21062;-73
2022/09/24 08:04:10;;;;;;;4.12;2.35;;;;;;;11.64;77.17;100034.26;1745050;82;21055;-70
2022/09/24 08:06:39;;;;;;;3.22;2.25;;;;;;;11.70;76.72;100019.68;1745245;82;21498;-71
2022/09/24 08:09:10;;;;;;;2.72;2.17;;;;;;;11.80;76.20;100029.75;1744054;82;21115;-71
2022/09/24 08:11:41;;;;;;;5.92;3.08;;;;;;;11.89;75.58;100033.11;1745390;82;21003;-72
2022/09/24 08:14:10;;;;;;;9.55;3.33;;;;;;;12.02;75.71;100026.20;1741812;82;21501;-71
2022/09/24 08:16:40;;;;;;;4.45;2.40;;;;;;;12.14;75.23;100038.73;1739561;82;21454;-72
2022/09/24 08:19:12;;;;;;;3.27;2.27;;;;;;;12.20;74.89;100046.95;1739626;82;21075;-72
2022/09/24 08:21:41;;;;;;;3.40;2.10;;;;;;;12.27;74.91;100036.77;1730984;82;21008;-71
2022/09/24 08:24:11;;;;;;;4.53;2.30;;;;;;;12.33;73.90;100033.16;1724307;82;21083;-72
2022/09/24 08:26:42;;;;;;;3.98;2.12;;;;;;;12.40;73.40;100035.06;1674460;84;21109;-72
2022/09/24 08:29:11;;;;;;;3.02;2.20;;;;;;;12.52;73.07;100036.90;1676367;85;21034;-73
2022/09/24 08:31:41;;;;;;;2.92;1.85;;;;;;;12.62;72.36;100031.77;1673773;84;21513;-71
2022/09/24 08:34:11;;;;;;;3.55;2.02;;;;;;;12.85;71.24;100032.58;1656547;86;21111;-71
2022/09/24 08:36:40;;;;;;;2.22;1.60;;;;;;;13.08;69.66;100038.91;1656432;86;21075;-71
2022/09/24 08:39:12;;;;;;;2.40;1.55;;;;;;;13.21;68.25;100024.23;1659864;85;21090;-73
2022/09/24 08:41:58;;;;;;;4.50;1.70;;;;;;;13.28;67.34;100023.64;1670044;85;21431;-72
2022/09/24 08:47:43;;;;;;;2.10;1.62;;;;;;;13.48;67.26;100031.72;1685613;85;21059;-72
2022/09/24 08:50:21;;;;;;;4.87;1.90;;;;;;;13.60;65.76;100038.17;1658024;85;21039;-73
2022/09/24 08:53:16;;;;;;;3.35;1.60;;;;;;;13.66;65.90;100030.41;1656573;86;21035;-70
2022/09/24 08:55:55;;;;;;;4.10;2.83;;;;;;;13.72;66.31;100030.04;1656618;86;21493;-72
2022/09/24 08:58:38;;;;;;;2.92;2.17;;;;;;;13.78;66.05;100036.02;1656121;86;21055;-74
2022/09/24 09:01:18;;;;;;;1.90;1.67;;;;;;;13.78;65.47;100030.51;1669214;84;21427;-72
2022/09/24 09:04:05;;;;;;;;;;;;;;;13.72;65.08;100036.92;1686492;84;21094;-72
2022/09/24 09:06:58;;;;;;;3.52;2.08;;;;;;;13.66;65.25;100031.79;1649162;85;20803;-72
2022/09/24 09:09:36;;;;;;;2.40;1.70;;;;;;;13.63;65.67;100030.83;1644706;86;21504;-73
2022/09/24 09:12:12;;;;;;;3.90;1.65;;;;;;;13.66;65.69;100033.17;1686829;85;21070;-72
2022/09/24 09:15:08;;;;;;;4.05;1.72;;;;;;;13.64;65.57;100026.48;1686857;84;21079;-70
2022/09/24 09:18:12;;;;;;;2.15;1.70;;;;;;;13.67;65.75;100031.26;1686822;84;21026;-72
2022/09/24 09:20:46;;;;;;;3.83;1.70;;;;;;;13.70;65.45;100028.05;1686227;84;21051;-73
2022/09/24 09:23:22;;;;;;;2.37;1.55;;;;;;;13.72;64.78;100030.04;1637428;86;21120;-73
2022/09/24 09:25:56;;;;;;;2.20;1.45;;;;;;;13.67;64.15;100035.39;1606196;89;21472;-73
2022/09/24 09:28:27;;;;;;;2.05;1.47;;;;;;;13.60;63.74;100029.38;1605785;88;21198;-72
2022/09/24 09:31:39;;;;;;;4.83;1.70;;;;;;;13.49;63.08;100033.41;1632806;86;21167;-72
2022/09/24 09:34:17;;;;;;;2.37;1.85;;;;;;;13.40;63.34;100032.85;1658229;86;21511;-73
2022/09/24 09:37:04;;;;;;;1.62;1.50;;;;;;;13.27;63.13;100027.46;1674651;86;21440;-71
2022/09/24 09:39:43;;;;;;;;;;;;;;;13.23;63.43;100033.11;1633699;88;21080;-73
2022/09/24 09:42:34;;;;;;;1.85;1.57;;;;;;;13.17;63.82;100033.47;1672861;85;20237;-72
2022/09/24 09:45:38;;;;;;;2.65;1.62;;;;;;;13.13;63.93;100034.10;1658373;86;21103;-73
2022/09/24 09:48:12;;;;;;;2.33;1.50;;;;;;;13.11;64.17;100034.86;1674572;86;21127;-73
2022/09/24 09:50:47;;;;;;;2.05;1.45;;;;;;;13.03;64.45;100026.88;1646011;87;21092;-72
2022/09/24 09:53:27;;;;;;;3.33;1.35;;;;;;;12.99;64.84;100025.08;1674292;86;20995;-72
2022/09/24 09:56:01;;;;;;;2.50;1.40;;;;;;;13.03;65.10;100025.51;1645932;87;21435;-71
2022/09/24 09:58:32;;;;;;;2.27;1.80;;;;;;;13.06;65.02;100030.03;1655253;86;21080;-73
2022/09/24 10:01:09;;;;;;;1.82;1.47;;;;;;;13.05;64.95;100031.62;1631038;87;21566;-72
2022/09/24 10:03:54;;;;;;;1.90;1.40;;;;;;;13.03;64.86;100029.63;1631402;86;21640;-72
2022/09/24 10:06:25;;;;;;;3.47;2.00;;;;;;;13.00;64.98;100026.27;1631521;86;21067;-73
2022/09/24 10:08:55;;;;;;;1.62;1.37;;;;;;;12.98;64.27;100024.23;1619966;86;21079;-73
2022/09/24 10:11:24;;;;;;;2.92;1.60;;;;;;;12.98;64.23;100030.27;1604374;88;21080;-72
2022/09/24 10:14:11;;;;;;;4.35;1.52;;;;;;;13.03;64.43;100029.63;1605515;88;21151;-73
2022/09/24 10:16:43;;;;;;;3.60;1.92;;;;;;;13.03;64.46;100026.35;1605594;89;21798;-73
2022/09/24 10:19:19;;;;;;;2.20;1.90;;;;;;;13.06;64.51;100025.06;1622243;88;21559;-72
2022/09/24 10:21:51;;;;;;;2.40;1.98;;;;;;;13.06;64.22;100029.19;1630281;86;21532;-72
2022/09/24 10:24:22;;;;;;;3.70;2.10;;;;;;;13.05;64.46;100026.97;1621917;87;21103;-72
2022/09/24 10:26:51;;;;;;;2.87;1.90;;;;;;;13.05;64.68;100019.25;1631175;88;21107;-70
2022/09/24 10:32:20;;;;;;;2.75;1.82;;;;;;;13.08;64.99;100020.18;1674294;85;21079;-75
2022/09/24 10:35:05;;;;;;;2.47;1.75;;;;;;;13.09;64.72;100015.83;1681571;85;21035;-72
2022/09/24 10:37:34;;;;;;;3.55;2.10;;;;;;;13.10;64.77;100015.30;1674277;84;21780;-79
2022/09/24 10:40:14;;;;;;;2.62;1.80;;;;;;;13.13;64.63;100020.35;1651074;85;21188;-66
2022/09/24 10:42:43;;;;;;;2.00;1.60;;;;;;;13.13;65.83;100026.70;1619961;88;21132;-68
2022/09/24 10:45:13;;;;;;;7.00;1.98;;;;;;;13.03;67.03;100026.88;1643310;87;21472;-68
2022/09/24 10:47:56;;;;;;;1.95;1.60;;;;;;;12.91;68.14;100019.31;1622532;87;21528;-67
2022/09/24 10:50:44;;;;;;;3.40;1.77;;;;;;;12.86;68.95;100019.67;1674330;84;21095;-68
2022/09/24 10:53:37;;;;;;;2.60;1.62;;;;;;;12.87;70.03;100020.83;1705283;84;21087;-67
2022/09/24 10:56:22;;;;;;;2.15;1.60;;;;;;;12.84;69.25;100030.89;1710351;84;21047;-69
2022/09/24 10:59:22;;;;;;;2.45;1.75;;;;;;;12.81;68.71;100034.08;1658484;85;21524;-69
2022/09/24 11:02:21;;;;;;;2.52;1.70;;;;;;;12.77;68.68;100035.59;1681748;85;21043;-69
2022/09/24 11:05:06;;;;;;;5.83;1.82;;;;;;;12.77;69.57;100034.22;1641450;87;21052;-68
2022/09/24 11:07:44;;;;;;;4.33;1.67;;;;;;;12.82;70.14;100033.02;1641207;87;21597;-69
2022/09/24 11:10:40;;;;;;;2.30;1.67;;;;;;;12.88;69.68;100032.66;1671710;85;21103;-69
2022/09/24 11:13:34;;;;;;;2.83;1.70;;;;;;;12.92;69.24;100034.75;1681374;85;21064;-69
2022/09/24 11:16:59;;;;;;;2.40;1.80;;;;;;;12.97;69.02;100029.42;1658919;85;21107;-68
2022/09/24 11:20:06;;;;;;;2.05;1.60;;;;;;;13.05;68.17;100024.22;1736511;82;21024;-69
2022/09/24 11:23:12;;;;;;;2.75;1.40;;;;;;;13.14;67.33;100016.53;1658195;86;21175;-68
2022/09/24 11:26:00;;;;;;;1.40;1.25;;;;;;;13.27;66.82;100021.42;1625835;88;21082;-69
2022/09/24 11:28:52;;;;;;;4.37;1.27;;;;;;;13.42;64.33;100018.33;1726671;82;21016;-68
2022/09/24 11:32:05;;;;;;;4.17;1.40;;;;;;;13.53;62.97;100013.46;1709132;82;21463;-69
2022/09/24 11:34:51;;;;;;;3.10;1.30;;;;;;;13.67;62.17;100019.71;1681875;84;21166;-68
2022/09/24 11:38:01;;;;;;;2.25;1.40;;;;;;;13.80;62.09;100033.34;1698927;82;21466;-70
2022/09/24 11:40:54;;;;;;;1.72;1.30;;;;;;;13.82;60.77;100011.08;1739515;82;21052;-68
2022/09/24 11:44:02;;;;;;;1.67;1.25;;;;;;;13.78;60.82;100023.09;1739849;82;21020;-68
2022/09/24 11:46:58;;;;;;;1.95;1.30;;;;;;;13.73;60.29;100023.47;1739785;82;21448;-72
2022/09/24 11:49:58;;;;;;;1.70;1.25;;;;;;;13.62;59.72;100025.02;1739083;82;21337;-69
2022/09/24 11:52:37;;;;;;;1.87;1.40;;;;;;;13.55;60.43;100026.47;1731858;82;21060;-69
2022/09/24 11:55:36;;;;;;;1.85;1.10;;;;;;;13.53;60.89;100033.27;1710260;84;21036;-67
2022/09/24 11:58:23;;;;;;;3.02;1.27;;;;;;;13.47;61.37;100025.91;1702429;82;21072;-68
2022/09/24 12:01:00;;;;;;;3.77;1.35;;;;;;;13.38;61.58;100033.61;1654271;84;21089;-69
2022/09/24 12:03:37;;;;;;;1.57;1.27;;;;;;;13.30;62.88;100043.52;1680133;85;21152;-68
2022/09/24 12:06:14;;;;;;;1.98;1.10;;;;;;;13.29;64.38;100041.84;1680170;85;21051;-68
2022/09/24 12:09:20;;;;;;;1.75;1.17;;;;;;;13.26;65.10;100046.41;1680382;85;21068;-67
2022/09/24 12:11:56;;;;;;;3.05;1.40;;;;;;;13.26;65.62;100058.27;1680510;85;21079;-68
2022/09/24 12:14:28;;;;;;;1.20;0.90;;;;;;;13.23;64.23;100061.98;1663156;84;21059;-67
2022/09/24 12:17:04;;;;;;;1.17;0.60;;;;;;;13.16;63.35;100048.78;1710530;84;21036;-67
2022/09/24 12:19:48;;;;;;;1.55;0.80;;;;;;;12.97;63.39;100045.92;1690244;84;21103;-68
2022/09/24 12:22:17;;;;;;;1.80;1.12;;;;;;;12.82;65.48;100039.05;1710183;84;21004;-67
2022/09/24 12:24:50;;;;;;;2.00;1.17;;;;;;;12.81;66.85;100038.73;1711068;84;20992;-68